Time;durP1;ratioP1;P1;durP2;ratioP2;P2;SDS_P1;SDS_P2;PMS_P1;PMS_P2;Temp;Humidity;BMP_temperature;BMP_pressure;BME280_temperature;BME280_humidity;BME280_pressure;Samples;Min_cycle;Max_cycle;Signal;HPM_P1;HPM_P2
2021/07/08 00:00:44;;;;;;;1.95;0.73;;;;;;;;;;5080103;28;20434;-57
2021/07/08 00:03:10;;;;;;;2.63;1.00;;;;;;;;;;5082311;28;20039;-57
2021/07/08 00:05:39;;;;;;;0.70;0.70;;;;;;;;;;5089126;28;20032;-57
2021/07/08 00:08:06;;;;;;;3.15;0.70;;;;;;;;;;5088114;28;20400;-57
2021/07/08 00:10:38;;;;;;;1.20;0.70;;;;;;;;;;5092083;28;20083;-57
2021/07/08 00:13:06;;;;;;;0.70;0.70;;;;;;;;;;5089692;28;20054;-57
2021/07/08 00:15:33;;;;;;;1.95;0.70;;;;;;;;;;5087954;28;20040;-57
2021/07/08 00:18:00;;;;;;;0.80;0.80;;;;;;;;;;5088413;28;20412;-57
2021/07/08 00:20:28;;;;;;;1.67;0.80;;;;;;;;;;5086299;28;20036;-57
2021/07/08 00:22:55;;;;;;;0.88;0.70;;;;;;;;;;5090993;28;20101;-57
2021/07/08 00:25:23;;;;;;;0.70;0.70;;;;;;;;;;5090333;28;20403;-57
2021/07/08 00:27:50;;;;;;;0.93;0.93;;;;;;;;;;5081931;28;20791;-57
2021/07/08 00:30:19;;;;;;;4.22;0.80;;;;;;;;;;5090673;28;20036;-57
2021/07/08 00:32:46;;;;;;;0.80;0.80;;;;;;;;;;5087618;28;20100;-56
2021/07/08 00:35:19;;;;;;;1.52;0.80;;;;;;;;;;5088826;28;20048;-57
2021/07/08 00:37:45;;;;;;;0.88;0.80;;;;;;;;;;5089584;28;20123;-57
2021/07/08 00:40:13;;;;;;;0.70;0.70;;;;;;;;;;5093514;28;20059;-57
2021/07/08 00:42:41;;;;;;;0.85;0.70;;;;;;;;;;5093072;28;20039;-57
2021/07/08 00:45:09;;;;;;;0.70;0.70;;;;;;;;;;5088850;28;20036;-57
2021/07/08 00:47:35;;;;;;;1.27;0.60;;;;;;;;;;5090354;28;20086;-58
2021/07/08 00:50:06;;;;;;;2.08;0.98;;;;;;;;;;5086647;28;20493;-57
2021/07/08 00:52:33;;;;;;;2.05;0.70;;;;;;;;;;5088803;28;20051;-57
2021/07/08 00:55:01;;;;;;;2.15;0.60;;;;;;;;;;5082405;28;20040;-57
2021/07/08 00:57:27;;;;;;;2.25;0.73;;;;;;;;;;5080799;28;20532;-57
2021/07/08 00:59:54;;;;;;;0.70;0.70;;;;;;;;;;5088752;28;20044;-57
2021/07/08 01:02:22;;;;;;;3.40;0.80;;;;;;;;;;5087480;28;20044;-57
2021/07/08 01:04:49;;;;;;;0.70;0.70;;;;;;;;;;5088492;28;20045;-57
2021/07/08 01:07:18;;;;;;;2.13;0.80;;;;;;;;;;5080356;28;20440;-57
2021/07/08 01:09:45;;;;;;;6.10;1.35;;;;;;;;;;5085095;28;20581;-57
2021/07/08 01:12:12;;;;;;;3.13;0.70;;;;;;;;;;5084832;28;20079;-57
2021/07/08 01:14:38;;;;;;;2.05;0.70;;;;;;;;;;5089395;28;20047;-57
2021/07/08 01:17:06;;;;;;;0.82;0.82;;;;;;;;;;5087179;28;20090;-57
2021/07/08 01:19:39;;;;;;;1.15;0.80;;;;;;;;;;5089345;28;20503;-57
2021/07/08 01:22:06;;;;;;;2.15;0.90;;;;;;;;;;5086739;28;20074;-57
2021/07/08 01:24:33;;;;;;;1.10;0.77;;;;;;;;;;5086659;28;20587;-57
2021/07/08 01:27:00;;;;;;;1.25;1.15;;;;;;;;;;5086713;28;20089;-57
2021/07/08 01:29:30;;;;;;;0.80;0.80;;;;;;;;;;5087345;28;20056;-57
2021/07/08 01:31:57;;;;;;;1.27;0.77;;;;;;;;;;5083471;28;20068;-57
2021/07/08 01:34:25;;;;;;;7.43;1.10;;;;;;;;;;5087364;28;20071;-57
2021/07/08 01:36:51;;;;;;;1.27;0.80;;;;;;;;;;5081318;28;20048;-57
2021/07/08 01:39:19;;;;;;;0.80;0.80;;;;;;;;;;5088823;28;20075;-57
2021/07/08 01:41:48;;;;;;;1.00;0.80;;;;;;;;;;5091207;28;20048;-57
2021/07/08 01:44:15;;;;;;;0.90;0.90;;;;;;;;;;5084466;28;20051;-57
2021/07/08 01:46:41;;;;;;;0.70;0.70;;;;;;;;;;5086765;28;20119;-57
2021/07/08 01:49:12;;;;;;;1.25;0.98;;;;;;;;;;5076094;28;20032;-57
2021/07/08 01:51:39;;;;;;;1.52;1.42;;;;;;;;;;5086346;28;20077;-57
2021/07/08 01:54:26;;;;;;;0.80;0.80;;;;;;;;;;5089582;28;20087;-57
2021/07/08 01:56:53;;;;;;;0.88;0.80;;;;;;;;;;5086295;28;20489;-57
2021/07/08 01:59:20;;;;;;;1.70;0.80;;;;;;;;;;5091753;28;20044;-57
2021/07/08 02:01:46;;;;;;;0.75;0.75;;;;;;;;;;5080280;28;20079;-57
2021/07/08 02:04:13;;;;;;;0.70;0.70;;;;;;;;;;5092847;28;20044;-57
2021/07/08 02:06:40;;;;;;;1.08;0.73;;;;;;;;;;5088385;28;20069;-57
2021/07/08 02:09:08;;;;;;;0.82;0.82;;;;;;;;;;5085140;28;20534;-57
2021/07/08 02:11:35;;;;;;;0.90;0.90;;;;;;;;;;5099970;28;20039;-57
2021/07/08 02:14:11;;;;;;;0.80;0.80;;;;;;;;;;5093534;28;20551;-57
2021/07/08 02:16:38;;;;;;;0.80;0.80;;;;;;;;;;5088570;28;20151;-56
2021/07/08 02:19:05;;;;;;;1.23;0.90;;;;;;;;;;5087089;28;20036;-57
2021/07/08 02:21:32;;;;;;;1.85;1.35;;;;;;;;;;5089554;28;20672;-57
2021/07/08 02:23:59;;;;;;;0.88;0.82;;;;;;;;;;5082682;28;20037;-57
2021/07/08 02:26:26;;;;;;;0.80;0.80;;;;;;;;;;5084062;28;20036;-57
2021/07/08 02:28:54;;;;;;;0.80;0.80;;;;;;;;;;5083045;28;20048;-57
2021/07/08 02:31:21;;;;;;;0.80;0.80;;;;;;;;;;5089091;28;20090;-57
2021/07/08 02:33:47;;;;;;;1.50;0.80;;;;;;;;;;5091397;28;20128;-57
2021/07/08 02:36:15;;;;;;;1.85;0.82;;;;;;;;;;5084285;28;20044;-57
2021/07/08 02:38:42;;;;;;;3.72;0.90;;;;;;;;;;5089958;28;20060;-57
2021/07/08 02:41:09;;;;;;;0.70;0.70;;;;;;;;;;5099711;28;20036;-57
2021/07/08 02:43:36;;;;;;;5.00;1.45;;;;;;;;;;5085003;28;20094;-57
2021/07/08 02:46:02;;;;;;;1.40;0.70;;;;;;;;;;5086889;28;20078;-57
2021/07/08 02:48:29;;;;;;;1.42;0.80;;;;;;;;;;5067175;28;20610;-57
2021/07/08 02:50:57;;;;;;;0.80;0.80;;;;;;;;;;5089458;28;20077;-57
2021/07/08 02:53:24;;;;;;;0.77;0.77;;;;;;;;;;5088937;28;20040;-57
2021/07/08 02:55:51;;;;;;;1.17;0.80;;;;;;;;;;5084944;28;20128;-57
2021/07/08 02:58:18;;;;;;;0.80;0.80;;;;;;;;;;5083154;28;20701;-57
2021/07/08 03:00:47;;;;;;;0.80;0.80;;;;;;;;;;5086581;28;20395;-57
2021/07/08 03:03:14;;;;;;;0.80;0.80;;;;;;;;;;5089314;28;20044;-57
2021/07/08 03:05:41;;;;;;;0.73;0.73;;;;;;;;;;5106645;28;20105;-57
2021/07/08 03:08:09;;;;;;;1.15;1.00;;;;;;;;;;5091932;28;20357;-57
2021/07/08 03:10:37;;;;;;;0.73;0.70;;;;;;;;;;5090640;28;20072;-57
2021/07/08 03:13:03;;;;;;;1.00;1.00;;;;;;;;;;5074816;28;20032;-57
2021/07/08 03:15:31;;;;;;;1.00;1.00;;;;;;;;;;5085493;28;20492;-57
2021/07/08 03:18:00;;;;;;;0.88;0.88;;;;;;;;;;5088256;28;20037;-57
2021/07/08 03:20:29;;;;;;;1.75;0.73;;;;;;;;;;5091257;28;20535;-57
2021/07/08 03:22:56;;;;;;;2.60;0.80;;;;;;;;;;5090354;28;20534;-57
2021/07/08 03:25:26;;;;;;;1.90;0.75;;;;;;;;;;5074125;28;20040;-57
2021/07/08 03:27:54;;;;;;;1.73;0.80;;;;;;;;;;5087865;28;20040;-57
2021/07/08 03:30:21;;;;;;;1.48;0.80;;;;;;;;;;5090149;28;20059;-57
2021/07/08 03:32:49;;;;;;;1.42;0.80;;;;;;;;;;5088027;28;20047;-57
2021/07/08 03:35:21;;;;;;;0.70;0.70;;;;;;;;;;5090730;28;20051;-57
2021/07/08 03:37:48;;;;;;;0.80;0.80;;;;;;;;;;5083036;28;20040;-57
2021/07/08 03:40:16;;;;;;;2.63;0.80;;;;;;;;;;5098681;28;20059;-58
2021/07/08 03:42:43;;;;;;;1.77;0.90;;;;;;;;;;5080238;28;20048;-57
2021/07/08 03:45:10;;;;;;;2.30;0.88;;;;;;;;;;5089193;28;20119;-57
2021/07/08 03:47:37;;;;;;;2.47;0.90;;;;;;;;;;5087728;28;20119;-57
2021/07/08 03:50:06;;;;;;;1.95;0.90;;;;;;;;;;5087294;28;20040;-57
2021/07/08 03:52:32;;;;;;;1.00;1.00;;;;;;;;;;5088551;28;20056;-57
2021/07/08 03:55:02;;;;;;;1.13;1.00;;;;;;;;;;5089865;28;20056;-57
2021/07/08 03:57:29;;;;;;;2.30;1.30;;;;;;;;;;5082359;28;20040;-57
2021/07/08 03:59:55;;;;;;;1.85;0.90;;;;;;;;;;5089363;28;20535;-57
2021/07/08 04:02:22;;;;;;;3.55;1.45;;;;;;;;;;5090122;28;20405;-57
2021/07/08 04:04:49;;;;;;;1.95;1.00;;;;;;;;;;5081438;28;20040;-57
2021/07/08 04:07:16;;;;;;;1.30;1.20;;;;;;;;;;5083289;28;20071;-57
2021/07/08 04:09:42;;;;;;;1.98;0.90;;;;;;;;;;5090385;28;20468;-57
2021/07/08 04:12:09;;;;;;;1.15;0.90;;;;;;;;;;5089290;28;20039;-57
2021/07/08 04:14:38;;;;;;;2.38;1.08;;;;;;;;;;5088482;28;20718;-58
2021/07/08 04:17:05;;;;;;;1.38;0.93;;;;;;;;;;5090107;28;20039;-57
2021/07/08 04:19:32;;;;;;;0.98;0.80;;;;;;;;;;5088178;28;20044;-57
2021/07/08 04:21:59;;;;;;;1.73;0.90;;;;;;;;;;5089078;28;20067;-57
2021/07/08 04:24:25;;;;;;;3.25;1.17;;;;;;;;;;5087305;28;20040;-57
2021/07/08 04:26:52;;;;;;;1.00;1.00;;;;;;;;;;5088711;28;20167;-58
2021/07/08 04:29:19;;;;;;;0.90;0.90;;;;;;;;;;5090230;28;20035;-57
2021/07/08 04:31:46;;;;;;;0.90;0.90;;;;;;;;;;5088917;28;20052;-57
2021/07/08 04:34:12;;;;;;;1.33;0.90;;;;;;;;;;5085020;28;20086;-57
2021/07/08 04:36:39;;;;;;;4.82;1.40;;;;;;;;;;5088385;28;20040;-57
2021/07/08 04:39:08;;;;;;;2.17;1.25;;;;;;;;;;5086661;28;20036;-58
2021/07/08 04:41:35;;;;;;;0.90;0.90;;;;;;;;;;5090914;28;20063;-57
2021/07/08 04:44:01;;;;;;;1.65;0.80;;;;;;;;;;5089416;28;20082;-57
2021/07/08 04:46:28;;;;;;;1.00;0.90;;;;;;;;;;5087916;28;20040;-58
2021/07/08 04:48:56;;;;;;;1.10;1.00;;;;;;;;;;5089458;28;20035;-57
2021/07/08 04:51:23;;;;;;;1.00;1.00;;;;;;;;;;5087952;28;20093;-57
2021/07/08 04:53:50;;;;;;;1.02;0.90;;;;;;;;;;5089547;28;20506;-57
2021/07/08 04:56:17;;;;;;;0.98;0.90;;;;;;;;;;5089052;28;20044;-58
2021/07/08 04:58:43;;;;;;;0.93;0.93;;;;;;;;;;5089709;28;20109;-57
2021/07/08 05:01:10;;;;;;;0.80;0.80;;;;;;;;;;5090196;28;20468;-58
2021/07/08 05:03:37;;;;;;;0.90;0.90;;;;;;;;;;5090026;28;20108;-57
2021/07/08 05:06:04;;;;;;;0.80;0.80;;;;;;;;;;5089783;28;20119;-57
2021/07/08 05:08:30;;;;;;;1.48;0.80;;;;;;;;;;5087390;28;20032;-57
2021/07/08 05:11:00;;;;;;;1.80;0.90;;;;;;;;;;5088040;28;20118;-57
2021/07/08 05:13:26;;;;;;;2.35;0.90;;;;;;;;;;5091360;28;20101;-58
2021/07/08 05:15:53;;;;;;;0.90;0.90;;;;;;;;;;5088358;28;20036;-58
2021/07/08 05:18:20;;;;;;;0.90;0.90;;;;;;;;;;5091155;28;20115;-57
2021/07/08 05:20:48;;;;;;;0.80;0.80;;;;;;;;;;5067581;28;20071;-56
2021/07/08 05:23:20;;;;;;;2.47;0.93;;;;;;;;;;5079081;28;20093;-57
2021/07/08 05:25:49;;;;;;;2.10;0.90;;;;;;;;;;5093429;28;20039;-57
2021/07/08 05:28:18;;;;;;;1.00;1.00;;;;;;;;;;5091912;28;20081;-57
2021/07/08 05:30:45;;;;;;;1.13;0.90;;;;;;;;;;5073924;28;20048;-57
2021/07/08 05:33:12;;;;;;;1.13;0.80;;;;;;;;;;5093173;28;20074;-57
2021/07/08 05:35:38;;;;;;;1.02;0.90;;;;;;;;;;5091394;28;20032;-57
2021/07/08 05:38:08;;;;;;;0.93;0.70;;;;;;;;;;5093613;28;20048;-57
2021/07/08 05:40:35;;;;;;;1.67;0.70;;;;;;;;;;5092660;28;20086;-57
2021/07/08 05:43:02;;;;;;;3.63;0.70;;;;;;;;;;5091229;28;20041;-57
2021/07/08 05:45:29;;;;;;;1.33;0.70;;;;;;;;;;5093868;28;20048;-57
2021/07/08 05:47:56;;;;;;;1.00;0.60;;;;;;;;;;5090010;28;20040;-57
2021/07/08 05:50:23;;;;;;;0.85;0.77;;;;;;;;;;5079360;28;20111;-57
2021/07/08 05:52:50;;;;;;;2.30;1.38;;;;;;;;;;5089364;28;20526;-57
2021/07/08 05:55:17;;;;;;;0.80;0.80;;;;;;;;;;5090823;28;20043;-57
2021/07/08 05:57:47;;;;;;;2.70;1.15;;;;;;;;;;5093646;28;20048;-57
2021/07/08 06:00:19;;;;;;;0.80;0.80;;;;;;;;;;5091508;28;20492;-57
2021/07/08 06:02:46;;;;;;;2.22;0.80;;;;;;;;;;5084834;28;20032;-57
2021/07/08 06:05:14;;;;;;;0.80;0.80;;;;;;;;;;5090351;28;20491;-58
2021/07/08 06:07:40;;;;;;;0.80;0.80;;;;;;;;;;5090018;28;20094;-57
2021/07/08 06:10:07;;;;;;;3.90;0.80;;;;;;;;;;5092240;28;20044;-57
2021/07/08 06:12:34;;;;;;;1.70;0.80;;;;;;;;;;5092134;28;20036;-57
2021/07/08 06:15:01;;;;;;;2.28;0.70;;;;;;;;;;5069855;28;20131;-57
2021/07/08 06:17:28;;;;;;;2.58;0.70;;;;;;;;;;5092593;28;20499;-57
2021/07/08 06:19:55;;;;;;;3.63;0.70;;;;;;;;;;5090569;28;20452;-57
2021/07/08 06:22:22;;;;;;;0.70;0.70;;;;;;;;;;5077531;28;20060;-57
2021/07/08 06:24:48;;;;;;;4.25;0.80;;;;;;;;;;5088256;28;20127;-57
2021/07/08 06:27:15;;;;;;;0.80;0.80;;;;;;;;;;5092012;28;20044;-57
2021/07/08 06:29:42;;;;;;;1.83;0.75;;;;;;;;;;5092097;28;20435;-57
2021/07/08 06:32:09;;;;;;;2.35;0.70;;;;;;;;;;5090763;28;20158;-57
2021/07/08 06:34:35;;;;;;;4.15;0.82;;;;;;;;;;5091711;28;20036;-58
2021/07/08 06:37:02;;;;;;;1.15;0.80;;;;;;;;;;5091027;28;20089;-58
2021/07/08 06:39:29;;;;;;;3.33;1.13;;;;;;;;;;5092011;28;20048;-59
2021/07/08 06:41:56;;;;;;;3.50;1.15;;;;;;;;;;5093532;28;20082;-59
2021/07/08 06:44:23;;;;;;;1.67;1.20;;;;;;;;;;5070976;28;20078;-59
2021/07/08 06:46:51;;;;;;;2.22;0.80;;;;;;;;;;5079979;28;20062;-59
2021/07/08 06:49:18;;;;;;;1.48;1.00;;;;;;;;;;5088495;28;20503;-59
2021/07/08 06:51:45;;;;;;;7.53;1.25;;;;;;;;;;5074909;28;20033;-59
2021/07/08 06:54:12;;;;;;;1.95;0.70;;;;;;;;;;5091442;28;20101;-59
2021/07/08 06:56:39;;;;;;;2.45;0.90;;;;;;;;;;5089912;28;20032;-58
2021/07/08 06:59:06;;;;;;;1.58;0.70;;;;;;;;;;5091996;28;20048;-59
2021/07/08 07:01:32;;;;;;;0.70;0.70;;;;;;;;;;5090663;28;20101;-58
2021/07/08 07:03:59;;;;;;;0.70;0.70;;;;;;;;;;5089263;28;20051;-58
2021/07/08 07:06:26;;;;;;;0.70;0.70;;;;;;;;;;5090965;28;20047;-59
2021/07/08 07:08:53;;;;;;;6.18;0.80;;;;;;;;;;5091054;28;20560;-58
2021/07/08 07:11:19;;;;;;;1.58;0.70;;;;;;;;;;5091653;28;20438;-59
2021/07/08 07:13:47;;;;;;;1.15;0.70;;;;;;;;;;5090493;28;20430;-59
2021/07/08 07:16:14;;;;;;;2.15;0.60;;;;;;;;;;5089515;28;20839;-58
2021/07/08 07:18:41;;;;;;;0.80;0.70;;;;;;;;;;5083184;28;20625;-58
2021/07/08 07:21:11;;;;;;;1.38;0.90;;;;;;;;;;5089182;28;20082;-58
2021/07/08 07:23:38;;;;;;;1.45;0.60;;;;;;;;;;5090643;28;20039;-58
2021/07/08 07:26:06;;;;;;;0.90;0.60;;;;;;;;;;5090616;28;20067;-58
2021/07/08 07:28:33;;;;;;;0.60;0.60;;;;;;;;;;5071629;28;20043;-58
2021/07/08 07:30:59;;;;;;;1.70;0.55;;;;;;;;;;5092294;28;20028;-58
2021/07/08 07:33:26;;;;;;;2.83;0.60;;;;;;;;;;5090172;28;20035;-57
2021/07/08 07:35:53;;;;;;;0.60;0.60;;;;;;;;;;5089221;28;20126;-57
2021/07/08 07:38:22;;;;;;;3.13;0.60;;;;;;;;;;5092341;28;20036;-57
2021/07/08 07:40:48;;;;;;;2.15;0.75;;;;;;;;;;5088065;28;20040;-58
2021/07/08 07:43:15;;;;;;;0.82;0.60;;;;;;;;;;5090306;28;20052;-57
2021/07/08 07:45:42;;;;;;;1.27;0.52;;;;;;;;;;5072600;28;20648;-57
2021/07/08 07:48:09;;;;;;;1.50;0.70;;;;;;;;;;5087997;28;20028;-57
2021/07/08 07:50:36;;;;;;;2.55;0.60;;;;;;;;;;5092418;28;20118;-57
2021/07/08 07:53:04;;;;;;;0.50;0.50;;;;;;;;;;5089956;28;20036;-57
2021/07/08 07:55:31;;;;;;;0.82;0.60;;;;;;;;;;5072836;28;20040;-57
2021/07/08 07:57:59;;;;;;;0.60;0.60;;;;;;;;;;5088929;28;20036;-57
2021/07/08 08:00:27;;;;;;;0.60;0.60;;;;;;;;;;5089311;28;20086;-57
2021/07/08 08:02:54;;;;;;;1.23;0.50;;;;;;;;;;5081925;28;20040;-57
2021/07/08 08:05:32;;;;;;;0.60;0.60;;;;;;;;;;5089481;28;20082;-57
2021/07/08 08:10:46;;;;;;;0.88;0.60;;;;;;;;;;5089091;28;20028;-57
2021/07/08 08:13:13;;;;;;;1.40;0.60;;;;;;;;;;5088198;28;20051;-57
2021/07/08 08:15:44;;;;;;;2.92;0.60;;;;;;;;;;5074376;28;20036;-57
2021/07/08 08:18:11;;;;;;;4.43;0.60;;;;;;;;;;5080010;28;20054;-57
2021/07/08 08:20:38;;;;;;;0.50;0.50;;;;;;;;;;5086123;28;20040;-57
2021/07/08 08:23:05;;;;;;;3.30;0.50;;;;;;;;;;5087687;28;20123;-57
2021/07/08 08:25:32;;;;;;;2.40;0.40;;;;;;;;;;5087921;28;20043;-57
2021/07/08 08:27:59;;;;;;;0.50;0.50;;;;;;;;;;5089775;28;20089;-58
2021/07/08 08:30:26;;;;;;;2.63;0.50;;;;;;;;;;5067897;28;20055;-57
2021/07/08 08:32:53;;;;;;;3.70;0.52;;;;;;;;;;5080243;28;20463;-57
2021/07/08 08:35:22;;;;;;;2.67;0.50;;;;;;;;;;5081875;28;20044;-57
2021/07/08 08:37:49;;;;;;;0.50;0.50;;;;;;;;;;5088301;28;20578;-58
2021/07/08 08:40:16;;;;;;;2.05;0.55;;;;;;;;;;5106743;28;20077;-57
2021/07/08 08:42:44;;;;;;;0.60;0.60;;;;;;;;;;5070661;28;20074;-57
2021/07/08 08:45:14;;;;;;;4.68;1.02;;;;;;;;;;5087111;28;20059;-57
2021/07/08 08:47:55;;;;;;;3.50;0.50;;;;;;;;;;5079976;28;20036;-58
2021/07/08 08:50:22;;;;;;;0.45;0.45;;;;;;;;;;5082946;28;20029;-58
2021/07/08 08:52:50;;;;;;;1.85;0.43;;;;;;;;;;5089453;28;20036;-58
2021/07/08 08:55:17;;;;;;;1.58;0.50;;;;;;;;;;5083589;28;20037;-58
2021/07/08 08:57:47;;;;;;;1.48;0.40;;;;;;;;;;5083933;28;20032;-58
2021/07/08 09:00:26;;;;;;;1.85;0.40;;;;;;;;;;5093298;28;20097;-58
2021/07/08 09:03:02;;;;;;;1.60;0.40;;;;;;;;;;5086775;28;20044;-58
2021/07/08 09:05:29;;;;;;;1.20;0.40;;;;;;;;;;5090596;28;20990;-58
2021/07/08 09:08:17;;;;;;;1.05;0.55;;;;;;;;;;5089438;28;20074;-58
2021/07/08 09:10:45;;;;;;;0.60;0.40;;;;;;;;;;5083270;28;20040;-58
2021/07/08 09:13:14;;;;;;;3.05;0.40;;;;;;;;;;5091094;28;20083;-58
2021/07/08 09:15:41;;;;;;;2.78;0.40;;;;;;;;;;5092651;28;20040;-58
2021/07/08 09:18:08;;;;;;;0.50;0.40;;;;;;;;;;5092376;28;20102;-58
2021/07/08 09:20:36;;;;;;;1.00;0.45;;;;;;;;;;5088521;28;20097;-58
2021/07/08 09:23:12;;;;;;;0.73;0.47;;;;;;;;;;5091827;28;20074;-58
2021/07/08 09:25:40;;;;;;;0.40;0.40;;;;;;;;;;5091940;28;20048;-58
2021/07/08 09:28:11;;;;;;;1.27;0.32;;;;;;;;;;5092951;28;20040;-57
2021/07/08 09:30:39;;;;;;;2.47;0.40;;;;;;;;;;5089970;28;20094;-58
2021/07/08 09:33:24;;;;;;;0.63;0.30;;;;;;;;;;5077546;28;20286;-57
2021/07/08 09:36:02;;;;;;;2.00;0.40;;;;;;;;;;5084120;28;20040;-57
2021/07/08 09:38:30;;;;;;;0.40;0.40;;;;;;;;;;5091698;28;20127;-57
2021/07/08 09:41:07;;;;;;;0.55;0.50;;;;;;;;;;5100872;28;20790;-58
2021/07/08 09:43:37;;;;;;;0.85;0.50;;;;;;;;;;5083995;28;20032;-57
2021/07/08 09:46:04;;;;;;;0.47;0.40;;;;;;;;;;5085512;28;20063;-57
2021/07/08 09:48:31;;;;;;;1.10;0.40;;;;;;;;;;5093003;28;20032;-57
2021/07/08 09:50:58;;;;;;;1.52;0.40;;;;;;;;;;5090788;28;20534;-58
2021/07/08 09:53:25;;;;;;;3.45;0.40;;;;;;;;;;5090149;28;20081;-58
2021/07/08 09:56:05;;;;;;;4.32;0.40;;;;;;;;;;5093745;28;20113;-57
2021/07/08 09:58:33;;;;;;;3.28;0.30;;;;;;;;;;5091278;28;20032;-58
2021/07/08 10:01:13;;;;;;;0.40;0.35;;;;;;;;;;5073949;28;20059;-58
2021/07/08 10:03:41;;;;;;;1.25;0.30;;;;;;;;;;5090760;28;20044;-57
2021/07/08 10:06:09;;;;;;;1.55;0.40;;;;;;;;;;5089350;28;20105;-58
2021/07/08 10:08:39;;;;;;;3.63;0.40;;;;;;;;;;5093292;28;20047;-57
2021/07/08 10:11:08;;;;;;;3.05;0.43;;;;;;;;;;5069713;28;20037;-57
2021/07/08 10:13:35;;;;;;;2.72;0.63;;;;;;;;;;5076676;28;20512;-57
2021/07/08 10:16:03;;;;;;;2.70;0.40;;;;;;;;;;5093448;28;20036;-57
2021/07/08 10:18:31;;;;;;;0.98;0.40;;;;;;;;;;5090199;28;20039;-57
2021/07/08 10:20:59;;;;;;;2.05;0.50;;;;;;;;;;5091411;28;20064;-57
2021/07/08 10:23:26;;;;;;;0.85;0.40;;;;;;;;;;5091708;28;20032;-57
2021/07/08 10:25:53;;;;;;;1.13;0.50;;;;;;;;;;5089918;28;20052;-57
2021/07/08 10:28:44;;;;;;;5.78;1.85;;;;;;;;;;5093198;28;20510;-57
2021/07/08 10:31:12;;;;;;;3.90;0.40;;;;;;;;;;5091429;28;20066;-57
2021/07/08 10:33:39;;;;;;;3.55;0.40;;;;;;;;;;5069470;28;20040;-57
2021/07/08 10:36:06;;;;;;;2.28;0.40;;;;;;;;;;5092077;28;20071;-57
2021/07/08 10:38:40;;;;;;;4.68;0.40;;;;;;;;;;5091274;28;20043;-57
2021/07/08 10:41:09;;;;;;;2.45;0.55;;;;;;;;;;5101863;28;20043;-57
2021/07/08 10:43:37;;;;;;;1.98;0.50;;;;;;;;;;5089092;28;20143;-57
2021/07/08 10:46:33;;;;;;;3.63;0.50;;;;;;;;;;5088737;28;20483;-57
2021/07/08 10:49:09;;;;;;;1.95;0.52;;;;;;;;;;5092898;28;20036;-57
2021/07/08 10:51:38;;;;;;;4.32;0.68;;;;;;;;;;5085720;28;20090;-57
2021/07/08 10:54:23;;;;;;;2.67;0.32;;;;;;;;;;5079237;28;20036;-57
2021/07/08 10:56:50;;;;;;;7.72;0.40;;;;;;;;;;5075096;28;20032;-57
2021/07/08 10:59:17;;;;;;;5.00;0.40;;;;;;;;;;5088387;28;20043;-57
2021/07/08 11:01:51;;;;;;;1.67;0.40;;;;;;;;;;5090419;28;20158;-57
2021/07/08 11:04:57;;;;;;;3.70;0.43;;;;;;;;;;5094577;28;20126;-57
2021/07/08 11:07:26;;;;;;;2.28;0.40;;;;;;;;;;5007797;28;20080;-57
2021/07/08 11:09:54;;;;;;;2.88;0.40;;;;;;;;;;5007638;28;20042;-57
2021/07/08 11:12:29;;;;;;;6.45;0.40;;;;;;;;;;5008474;28;20046;-57
2021/07/08 11:14:56;;;;;;;3.13;0.50;;;;;;;;;;5008788;28;20494;-57
2021/07/08 11:17:23;;;;;;;0.57;0.30;;;;;;;;;;4977639;28;20081;-57
2021/07/08 11:19:50;;;;;;;2.88;0.40;;;;;;;;;;5010378;28;20499;-57
2021/07/08 11:22:25;;;;;;;8.52;0.30;;;;;;;;;;5007048;28;20580;-57
2021/07/08 11:24:53;;;;;;;0.52;0.30;;;;;;;;;;5008693;28;20141;-57
2021/07/08 11:27:35;;;;;;;7.90;0.70;;;;;;;;;;5009962;28;20559;-57
2021/07/08 11:30:24;;;;;;;3.03;0.40;;;;;;;;;;5009306;28;20091;-57
2021/07/08 11:32:55;;;;;;;5.10;0.40;;;;;;;;;;5008590;28;20142;-57
2021/07/08 11:35:27;;;;;;;8.10;0.60;;;;;;;;;;5008846;28;20090;-57
2021/07/08 11:37:55;;;;;;;2.05;0.20;;;;;;;;;;5032006;28;20102;-54
2021/07/08 11:40:23;;;;;;;1.33;0.43;;;;;;;;;;5092370;28;20094;-54
2021/07/08 11:42:50;;;;;;;2.97;0.50;;;;;;;;;;5088882;28;20115;-55
2021/07/08 11:45:18;;;;;;;3.22;0.63;;;;;;;;;;5091458;28;20492;-55
2021/07/08 11:47:46;;;;;;;2.65;0.40;;;;;;;;;;5088292;28;20226;-55
2021/07/08 11:50:17;;;;;;;3.63;0.45;;;;;;;;;;5074511;28;20365;-55
2021/07/08 11:52:44;;;;;;;0.88;0.38;;;;;;;;;;5090754;28;20402;-55
2021/07/08 11:55:11;;;;;;;2.75;0.40;;;;;;;;;;5088475;28;20044;-55
2021/07/08 11:57:55;;;;;;;2.53;0.30;;;;;;;;;;5090423;28;20426;-54
2021/07/08 12:00:27;;;;;;;3.80;0.40;;;;;;;;;;5083202;28;20489;-54
2021/07/08 12:02:54;;;;;;;3.30;0.40;;;;;;;;;;5077110;28;20044;-54
2021/07/08 12:05:21;;;;;;;3.92;0.30;;;;;;;;;;5091658;28;20051;-54
2021/07/08 12:10:24;;;;;;;2.00;0.30;;;;;;;;;;5072874;28;20025;-54
2021/07/08 12:12:53;;;;;;;7.57;0.60;;;;;;;;;;5090060;28;20040;-54
2021/07/08 12:15:21;;;;;;;8.32;0.50;;;;;;;;;;5088858;28;20044;-54
2021/07/08 12:17:52;;;;;;;3.97;0.40;;;;;;;;;;5083265;28;20106;-54
2021/07/08 12:20:28;;;;;;;0.95;0.30;;;;;;;;;;5085740;28;20060;-54
2021/07/08 12:22:56;;;;;;;3.97;0.40;;;;;;;;;;5088350;28;20567;-55
2021/07/08 12:25:24;;;;;;;6.22;1.05;;;;;;;;;;5095757;28;20066;-55
2021/07/08 12:27:51;;;;;;;2.80;0.43;;;;;;;;;;5085700;28;21012;-54
2021/07/08 12:30:23;;;;;;;0.98;0.50;;;;;;;;;;5090169;28;20036;-54
2021/07/08 12:33:06;;;;;;;2.10;0.40;;;;;;;;;;5093002;28;20491;-53
2021/07/08 12:35:51;;;;;;;164.27;103.25;;;;;;;;;;5078479;28;20036;-54
2021/07/08 12:38:18;;;;;;;1.55;0.60;;;;;;;;;;5086989;28;20040;-58
2021/07/08 12:40:47;;;;;;;1.20;0.47;;;;;;;;;;5085480;28;20028;-54
2021/07/08 12:43:15;;;;;;;3.65;0.40;;;;;;;;;;5083167;28;20040;-42
2021/07/08 12:45:42;;;;;;;3.45;0.43;;;;;;;;;;5083078;28;20526;-42
2021/07/08 12:48:13;;;;;;;2.38;0.40;;;;;;;;;;5065183;28;20094;-42
2021/07/08 12:50:41;;;;;;;1.70;0.40;;;;;;;;;;5088621;28;20067;-43
2021/07/08 12:53:15;;;;;;;7.07;1.13;;;;;;;;;;5088953;28;20032;-43
2021/07/08 12:55:42;;;;;;;3.42;0.68;;;;;;;;;;5087895;28;20503;-42
2021/07/08 12:58:09;;;;;;;1.77;0.40;;;;;;;;;;5090170;28;20036;-44
2021/07/08 13:00:39;;;;;;;1.30;0.60;;;;;;;;;;5067739;28;20123;-42
2021/07/08 13:03:06;;;;;;;5.30;0.50;;;;;;;;;;5053929;28;20098;-43
2021/07/08 13:05:35;;;;;;;4.78;0.50;;;;;;;;;;5083489;28;20033;-43
2021/07/08 13:08:05;;;;;;;3.15;0.40;;;;;;;;;;5086220;28;20064;-44
2021/07/08 13:10:33;;;;;;;1.02;0.40;;;;;;;;;;5075770;28;20037;-44
2021/07/08 13:13:00;;;;;;;2.63;0.40;;;;;;;;;;5083587;28;20066;-43
2021/07/08 13:15:27;;;;;;;1.85;0.32;;;;;;;;;;5072050;28;20111;-44
2021/07/08 13:18:16;;;;;;;3.60;0.70;;;;;;;;;;5090412;28;20052;-43
2021/07/08 13:20:48;;;;;;;2.28;0.40;;;;;;;;;;5088141;28;20036;-41
2021/07/08 13:23:17;;;;;;;2.05;0.30;;;;;;;;;;5070277;28;20440;-42
2021/07/08 13:25:44;;;;;;;4.03;0.40;;;;;;;;;;5089157;28;20062;-41
2021/07/08 13:28:30;;;;;;;2.85;0.50;;;;;;;;;;5089530;28;20503;-43
2021/07/08 13:31:04;;;;;;;2.70;0.60;;;;;;;;;;5088239;28;20040;-44
2021/07/08 13:33:49;;;;;;;4.95;0.40;;;;;;;;;;5081943;28;20070;-41
2021/07/08 13:36:21;;;;;;;2.85;0.50;;;;;;;;;;5081462;28;20043;-42
2021/07/08 13:39:09;;;;;;;4.85;0.52;;;;;;;;;;5089245;28;20040;-41
2021/07/08 13:41:37;;;;;;;1.55;0.55;;;;;;;;;;5087040;28;20040;-43
2021/07/08 13:44:08;;;;;;;5.57;0.50;;;;;;;;;;5078787;28;20090;-42
2021/07/08 13:46:35;;;;;;;4.00;0.40;;;;;;;;;;5093456;28;20036;-42
2021/07/08 13:49:07;;;;;;;1.95;0.40;;;;;;;;;;5092970;28;20577;-43
2021/07/08 13:51:34;;;;;;;3.95;0.40;;;;;;;;;;5080523;28;20126;-44
2021/07/08 13:54:09;;;;;;;1.67;0.30;;;;;;;;;;5093392;28;21034;-42
2021/07/08 13:56:36;;;;;;;4.72;0.43;;;;;;;;;;5091090;28;20150;-42
2021/07/08 13:59:04;;;;;;;4.55;0.77;;;;;;;;;;5107905;28;20032;-44
2021/07/08 14:01:32;;;;;;;2.35;0.40;;;;;;;;;;5091296;28;20036;-42
2021/07/08 14:03:58;;;;;;;2.08;0.40;;;;;;;;;;5077248;28;20036;-42
2021/07/08 14:06:26;;;;;;;3.80;0.40;;;;;;;;;;5091704;28;20044;-42
2021/07/08 14:08:53;;;;;;;3.22;0.47;;;;;;;;;;5083110;28;20055;-42
2021/07/08 14:11:22;;;;;;;1.10;0.40;;;;;;;;;;5092718;28;20507;-42
2021/07/08 14:13:56;;;;;;;1.50;0.40;;;;;;;;;;5086783;28;20047;-42
2021/07/08 14:16:30;;;;;;;1.60;0.50;;;;;;;;;;5078866;28;20048;-42
2021/07/08 14:18:57;;;;;;;2.05;0.40;;;;;;;;;;5091737;28;20093;-43
2021/07/08 14:21:25;;;;;;;5.10;0.60;;;;;;;;;;5092173;28;20035;-43
2021/07/08 14:23:52;;;;;;;2.88;0.43;;;;;;;;;;5073251;28;20454;-44
2021/07/08 14:26:19;;;;;;;5.38;0.50;;;;;;;;;;5093373;28;20040;-43
2021/07/08 14:28:46;;;;;;;4.47;0.47;;;;;;;;;;5090498;28;20120;-42
2021/07/08 14:31:13;;;;;;;3.92;0.40;;;;;;;;;;5077463;28;20094;-42
2021/07/08 14:33:42;;;;;;;2.53;0.40;;;;;;;;;;5086933;28;20051;-42
2021/07/08 14:36:10;;;;;;;4.93;0.52;;;;;;;;;;5078553;28;20547;-44
2021/07/08 14:38:37;;;;;;;2.60;0.40;;;;;;;;;;5093119;28;20101;-42
2021/07/08 14:41:05;;;;;;;0.90;0.30;;;;;;;;;;5092200;28;20120;-43
2021/07/08 14:43:57;;;;;;;2.50;0.40;;;;;;;;;;5091369;28;20480;-41
2021/07/08 14:46:26;;;;;;;1.23;0.40;;;;;;;;;;5085713;28;20087;-43
2021/07/08 14:48:54;;;;;;;6.32;0.50;;;;;;;;;;5079905;28;20075;-42
2021/07/08 14:51:22;;;;;;;3.72;0.68;;;;;;;;;;5092543;28;20540;-42
2021/07/08 14:53:49;;;;;;;2.28;0.30;;;;;;;;;;5090642;28;20484;-42
2021/07/08 14:56:18;;;;;;;2.20;0.40;;;;;;;;;;5086596;28;20072;-43
2021/07/08 14:58:45;;;;;;;1.35;0.38;;;;;;;;;;5084238;28;20040;-43